Time;durP1;ratioP1;P1;durP2;ratioP2;P2;SDS_P1;SDS_P2;PMS_P1;PMS_P2;Temp;Humidity;BMP_temperature;BMP_pressure;BME280_temperature;BME280_humidity;BME280_pressure;Samples;Min_cycle;Max_cycle;Signal;HPM_P1;HPM_P2
2023/03/20 00:01:29;;;;;;;9.83;9.53;;;9.50;99.90;;;;;;5066584;28;20330;-79
2023/03/20 00:03:57;;;;;;;10.00;9.70;;;9.40;99.90;;;;;;5065584;28;20214;-79
2023/03/20 00:06:29;;;;;;;9.90;9.60;;;9.40;99.90;;;;;;5066488;28;20252;-79
2023/03/20 00:08:57;;;;;;;10.00;9.70;;;9.40;99.90;;;;;;5065809;28;20233;-79
2023/03/20 00:11:31;;;;;;;9.80;9.50;;;9.40;99.90;;;;;;5065728;28;20242;-80
2023/03/20 00:14:01;;;;;;;9.80;9.50;;;9.30;99.90;;;;;;5068515;28;20281;-80
2023/03/20 00:16:33;;;;;;;9.93;9.63;;;9.40;99.90;;;;;;5067545;28;20233;-80
2023/03/20 00:19:00;;;;;;;9.73;9.43;;;9.30;99.90;;;;;;5069319;28;20298;-80
2023/03/20 00:21:30;;;;;;;9.97;9.67;;;9.40;99.90;;;;;;5069065;28;20303;-80
2023/03/20 00:23:59;;;;;;;9.77;9.47;;;9.30;99.90;;;;;;5068283;28;20238;-80
2023/03/20 00:26:32;;;;;;;9.90;9.60;;;9.40;99.90;;;;;;5068137;28;20251;-79
2023/03/20 00:28:59;;;;;;;9.80;9.50;;;9.40;99.90;;;;;;5067103;28;20262;-80
2023/03/20 00:31:29;;;;;;;9.80;9.50;;;9.30;99.90;;;;;;5067279;28;20245;-80
2023/03/20 00:34:00;;;;;;;9.80;9.50;;;9.20;99.90;;;;;;5067635;28;20342;-80
2023/03/20 00:36:29;;;;;;;9.90;9.60;;;9.20;99.90;;;;;;5067117;28;20233;-79
2023/03/20 00:38:57;;;;;;;9.70;9.40;;;9.10;99.90;;;;;;5066023;28;20239;-80
2023/03/20 00:41:28;;;;;;;9.80;9.50;;;9.10;99.90;;;;;;5066774;28;20237;-79
2023/03/20 00:44:01;;;;;;;9.60;9.30;;;9.10;99.90;;;;;;5066227;28;20227;-80
2023/03/20 00:46:33;;;;;;;9.80;9.50;;;9.00;99.90;;;;;;5066189;28;20237;-80
2023/03/20 00:49:02;;;;;;;9.70;9.40;;;9.00;99.90;;;;;;5067027;28;20261;-80
2023/03/20 00:51:31;;;;;;;9.73;9.43;;;9.00;99.90;;;;;;5076121;28;20242;-79
2023/03/20 00:54:01;;;;;;;9.73;9.43;;;9.10;99.90;;;;;;5077491;28;20227;-79
2023/03/20 00:56:37;;;;;;;9.90;9.60;;;9.00;99.90;;;;;;5075487;28;20230;-80
2023/03/20 00:59:06;;;;;;;9.50;9.20;;;9.00;99.90;;;;;;5070348;28;20239;-80
2023/03/20 01:01:37;;;;;;;9.73;9.43;;;9.00;99.90;;;;;;5069913;28;20242;-79
2023/03/20 01:04:11;;;;;;;9.80;9.50;;;9.00;99.90;;;;;;5068742;28;20261;-80
2023/03/20 01:06:40;;;;;;;9.70;9.40;;;9.00;99.90;;;;;;5072375;28;20245;-79
2023/03/20 01:09:08;;;;;;;9.70;9.40;;;9.00;99.90;;;;;;5069996;28;20243;-80
2023/03/20 01:11:36;;;;;;;9.73;9.43;;;9.00;99.90;;;;;;5070317;28;20246;-80
2023/03/20 01:14:05;;;;;;;9.87;9.57;;;9.00;99.90;;;;;;5070295;28;20235;-80
2023/03/20 01:16:33;;;;;;;9.90;9.60;;;9.00;99.90;;;;;;5076456;28;20274;-79
2023/03/20 01:19:01;;;;;;;9.93;9.63;;;8.90;99.90;;;;;;5077161;28;20230;-80
2023/03/20 01:21:28;;;;;;;9.90;9.60;;;8.90;99.90;;;;;;5071207;28;20238;-79
2023/03/20 01:23:57;;;;;;;9.70;9.40;;;8.90;99.90;;;;;;5069472;28;20219;-80
2023/03/20 01:26:32;;;;;;;9.90;9.60;;;8.90;99.90;;;;;;5069762;28;20322;-80
2023/03/20 01:29:00;;;;;;;9.70;9.40;;;9.00;99.90;;;;;;5069283;28;20341;-80
2023/03/20 01:31:28;;;;;;;9.77;9.47;;;9.00;99.90;;;;;;5067879;28;20239;-80
2023/03/20 01:33:56;;;;;;;9.97;9.67;;;9.00;99.90;;;;;;5067941;28;20296;-79
2023/03/20 01:36:24;;;;;;;9.80;9.50;;;9.00;99.90;;;;;;5068537;28;20231;-79
2023/03/20 01:39:01;;;;;;;9.87;9.57;;;9.00;99.90;;;;;;5067550;28;20241;-80
2023/03/20 01:41:30;;;;;;;9.70;9.40;;;9.00;99.90;;;;;;5067881;28;20317;-80
2023/03/20 01:43:58;;;;;;;9.80;9.50;;;9.00;99.90;;;;;;5067573;28;20219;-80
2023/03/20 01:46:30;;;;;;;9.80;9.50;;;8.90;99.90;;;;;;5067899;28;20269;-80
2023/03/20 01:49:09;;;;;;;9.70;9.40;;;8.90;99.90;;;;;;5067200;28;20239;-80
2023/03/20 01:51:36;;;;;;;9.70;9.40;;;8.80;99.90;;;;;;5066828;28;20234;-80
2023/03/20 01:54:14;;;;;;;9.80;9.50;;;8.70;99.90;;;;;;5066717;28;20274;-80
2023/03/20 01:56:48;;;;;;;9.73;9.43;;;8.70;99.90;;;;;;5066203;28;20261;-80
2023/03/20 01:59:23;;;;;;;9.60;9.30;;;8.60;99.90;;;;;;5066380;28;20241;-80
2023/03/20 02:01:51;;;;;;;9.60;9.30;;;8.60;99.90;;;;;;5066998;28;20225;-80
2023/03/20 02:04:24;;;;;;;9.60;9.30;;;8.60;99.90;;;;;;5066430;28;20278;-80
2023/03/20 02:06:52;;;;;;;9.80;9.50;;;8.70;99.90;;;;;;5067515;28;20246;-79
2023/03/20 02:09:21;;;;;;;9.73;9.43;;;8.70;99.90;;;;;;5066701;28;20227;-80
2023/03/20 02:11:49;;;;;;;9.80;9.50;;;8.80;99.90;;;;;;5067173;28;20317;-80
2023/03/20 02:14:18;;;;;;;9.60;9.30;;;8.80;99.90;;;;;;5069195;28;20250;-78
2023/03/20 02:16:46;;;;;;;9.60;9.30;;;8.80;99.90;;;;;;5071942;28;20234;-79
2023/03/20 02:19:27;;;;;;;9.60;9.30;;;8.70;99.90;;;;;;5073470;28;20298;-78
2023/03/20 02:22:35;;;;;;;9.50;9.20;;;8.70;99.90;;;;;;5074076;28;20222;-78
2023/03/20 02:25:44;;;;;;;9.90;9.60;;;8.70;99.90;;;;;;5074964;28;20313;-79
2023/03/20 02:28:53;;;;;;;9.70;9.40;;;8.70;99.90;;;;;;5051636;28;20294;-79
2023/03/20 02:31:48;;;;;;;9.80;9.50;;;8.70;99.90;;;;;;5074747;28;20906;-78
2023/03/20 02:34:57;;;;;;;9.80;9.50;;;8.70;99.90;;;;;;5074587;28;20290;-79
2023/03/20 02:37:44;;;;;;;9.77;9.47;;;8.70;99.90;;;;;;5077473;28;20235;-79
2023/03/20 02:40:23;;;;;;;9.60;9.30;;;8.80;99.90;;;;;;5077445;28;20294;-79
2023/03/20 02:43:00;;;;;;;9.63;9.33;;;8.80;99.90;;;;;;5078425;28;20218;-79
2023/03/20 02:45:31;;;;;;;9.50;9.20;;;8.80;99.90;;;;;;5078697;28;20260;-80
2023/03/20 02:48:13;;;;;;;9.40;9.10;;;8.80;99.90;;;;;;5077578;28;20230;-79
2023/03/20 02:50:50;;;;;;;9.50;9.20;;;8.90;99.90;;;;;;5075405;28;20301;-80
2023/03/20 02:53:35;;;;;;;9.67;9.37;;;8.90;99.90;;;;;;5075149;28;20262;-79
2023/03/20 02:56:13;;;;;;;9.53;9.23;;;8.90;99.90;;;;;;5074522;28;20222;-80
2023/03/20 02:58:49;;;;;;;9.40;9.10;;;8.90;99.90;;;;;;5073869;28;20299;-80
2023/03/20 03:01:22;;;;;;;9.67;9.37;;;8.90;99.90;;;;;;5072851;28;20254;-80
2023/03/20 03:03:55;;;;;;;9.70;9.40;;;8.80;99.90;;;;;;5072298;28;20223;-79
2023/03/20 03:06:28;;;;;;;9.57;9.27;;;8.80;99.90;;;;;;5072528;28;20318;-80
2023/03/20 03:09:06;;;;;;;9.70;9.40;;;8.80;99.90;;;;;;5072274;28;20226;-79
2023/03/20 03:11:41;;;;;;;9.60;9.30;;;8.80;99.90;;;;;;5072388;28;20245;-79
2023/03/20 03:14:15;;;;;;;9.90;9.60;;;8.80;99.90;;;;;;5072866;28;20297;-79
2023/03/20 03:16:45;;;;;;;9.60;9.30;;;8.70;99.90;;;;;;5072029;28;20227;-79
2023/03/20 03:19:18;;;;;;;9.83;9.53;;;8.70;99.90;;;;;;5071062;28;20215;-80
2023/03/20 03:21:47;;;;;;;9.80;9.50;;;8.60;99.90;;;;;;5071212;28;20238;-79
2023/03/20 03:24:32;;;;;;;9.80;9.50;;;8.50;99.90;;;;;;5071065;28;20326;-79
2023/03/20 03:27:03;;;;;;;9.70;9.40;;;8.50;99.90;;;;;;5071352;28;20230;-80
2023/03/20 03:29:35;;;;;;;9.90;9.60;;;8.50;99.90;;;;;;5074289;28;20207;-79
2023/03/20 03:32:06;;;;;;;9.70;9.40;;;8.50;99.90;;;;;;5080003;28;20234;-80
2023/03/20 03:34:36;;;;;;;9.67;9.37;;;8.50;99.90;;;;;;5075989;28;20245;-80
2023/03/20 03:37:11;;;;;;;9.70;9.40;;;8.50;99.90;;;;;;5067063;28;20227;-79
2023/03/20 03:39:46;;;;;;;9.97;9.67;;;8.50;99.90;;;;;;5066003;28;20311;-79
2023/03/20 03:42:24;;;;;;;9.50;9.20;;;8.50;99.90;;;;;;5065510;28;20313;-79
2023/03/20 03:45:01;;;;;;;9.50;9.20;;;8.50;99.90;;;;;;5069058;28;20258;-79
2023/03/20 03:47:33;;;;;;;9.70;9.40;;;8.50;99.90;;;;;;5069262;28;20222;-80
2023/03/20 03:50:06;;;;;;;9.60;9.30;;;8.50;99.90;;;;;;5069203;28;20245;-79
2023/03/20 03:52:37;;;;;;;9.53;9.23;;;8.50;99.90;;;;;;5070059;28;20273;-79
2023/03/20 03:55:15;;;;;;;9.60;9.30;;;8.50;99.90;;;;;;5070919;28;20223;-79
2023/03/20 03:57:48;;;;;;;9.50;9.20;;;8.40;99.90;;;;;;5070613;28;20258;-79
2023/03/20 04:00:21;;;;;;;9.70;9.40;;;8.50;99.90;;;;;;5070235;28;20291;-79
2023/03/20 04:02:54;;;;;;;9.70;9.40;;;8.40;99.90;;;;;;5070920;28;20223;-79
2023/03/20 04:05:23;;;;;;;9.70;9.40;;;8.30;99.90;;;;;;5069778;28;20235;-79
2023/03/20 04:07:59;;;;;;;9.73;9.43;;;8.30;99.90;;;;;;5069090;28;20270;-79
2023/03/20 04:10:28;;;;;;;9.60;9.30;;;8.30;99.90;;;;;;5069301;28;20230;-79
2023/03/20 04:12:56;;;;;;;9.30;9.00;;;8.20;99.90;;;;;;5069320;28;20229;-79
2023/03/20 04:15:26;;;;;;;9.40;9.10;;;8.20;99.90;;;;;;5068254;28;20297;-79
2023/03/20 04:17:54;;;;;;;9.50;9.20;;;8.10;99.90;;;;;;5068524;28;20253;-79
2023/03/20 04:20:21;;;;;;;9.60;9.30;;;8.10;99.90;;;;;;5071415;28;20223;-78
2023/03/20 04:22:50;;;;;;;9.50;9.20;;;8.10;99.90;;;;;;5070958;28;20239;-78
2023/03/20 04:25:21;;;;;;;9.57;9.27;;;8.10;99.90;;;;;;5071022;28;20298;-79
2023/03/20 04:27:51;;;;;;;9.53;9.23;;;8.00;99.90;;;;;;5069188;28;20239;-79
2023/03/20 04:30:19;;;;;;;9.60;9.30;;;8.00;99.90;;;;;;5069093;28;20282;-79
2023/03/20 04:32:49;;;;;;;9.60;9.30;;;8.00;99.90;;;;;;5067703;28;20235;-79
2023/03/20 04:35:17;;;;;;;9.37;9.07;;;8.00;99.90;;;;;;5075323;28;20242;-79
2023/03/20 04:37:47;;;;;;;9.47;9.17;;;8.00;99.90;;;;;;5067127;28;20239;-79
2023/03/20 04:40:15;;;;;;;9.60;9.30;;;7.90;99.90;;;;;;5067263;28;20235;-79
2023/03/20 04:42:43;;;;;;;9.60;9.30;;;7.90;99.90;;;;;;5067486;28;20241;-79
2023/03/20 04:45:12;;;;;;;9.37;9.07;;;7.90;99.90;;;;;;5066349;28;20321;-80
2023/03/20 04:47:39;;;;;;;9.50;9.20;;;7.90;99.90;;;;;;5067420;28;20243;-79
2023/03/20 04:50:08;;;;;;;9.47;9.17;;;7.80;99.90;;;;;;5067777;28;20233;-78
2023/03/20 04:52:35;;;;;;;9.63;9.33;;;7.80;99.90;;;;;;5066936;28;20254;-79
2023/03/20 04:55:03;;;;;;;9.60;9.30;;;7.80;99.90;;;;;;5067884;28;20302;-79
2023/03/20 04:57:32;;;;;;;9.83;9.53;;;7.80;99.90;;;;;;5066400;28;20237;-80
2023/03/20 05:00:02;;;;;;;9.60;9.30;;;7.70;99.90;;;;;;5066660;28;20226;-79
2023/03/20 05:02:32;;;;;;;9.83;9.53;;;7.70;99.90;;;;;;5067142;28;20222;-79
2023/03/20 05:05:00;;;;;;;9.90;9.60;;;7.70;99.90;;;;;;5067026;28;20280;-79
2023/03/20 05:07:28;;;;;;;9.83;9.53;;;7.70;99.90;;;;;;5066622;28;20234;-79
2023/03/20 05:09:55;;;;;;;10.07;9.77;;;7.80;99.90;;;;;;5073222;28;20223;-79
2023/03/20 05:12:23;;;;;;;10.17;9.87;;;7.80;99.90;;;;;;5068758;28;20822;-79
2023/03/20 05:14:51;;;;;;;10.30;10.00;;;7.80;99.90;;;;;;5069693;28;20230;-79
2023/03/20 05:17:19;;;;;;;10.30;10.00;;;7.90;99.90;;;;;;5068927;28;20294;-79
2023/03/20 05:19:49;;;;;;;10.17;9.87;;;7.90;99.90;;;;;;5067812;28;20228;-79
2023/03/20 05:22:18;;;;;;;10.30;10.00;;;7.90;99.90;;;;;;5067872;28;20289;-79
2023/03/20 05:24:48;;;;;;;10.17;9.87;;;8.00;99.90;;;;;;5067235;28;20258;-79
2023/03/20 05:27:17;;;;;;;10.20;9.90;;;8.00;99.90;;;;;;5067485;28;20242;-80
2023/03/20 05:29:49;;;;;;;10.10;9.80;;;8.00;99.90;;;;;;5068696;28;20322;-79
2023/03/20 05:32:16;;;;;;;10.40;10.10;;;8.10;99.90;;;;;;5066825;28;20280;-80
2023/03/20 05:34:45;;;;;;;10.80;10.50;;;8.10;99.90;;;;;;5067263;28;20241;-79
2023/03/20 05:37:15;;;;;;;10.27;9.97;;;8.10;99.90;;;;;;5066043;28;20247;-80
2023/03/20 05:39:43;;;;;;;10.20;9.90;;;8.10;99.90;;;;;;5066145;28;20226;-80
2023/03/20 05:42:14;;;;;;;10.10;9.80;;;8.10;99.90;;;;;;5067570;28;20231;-80
2023/03/20 05:44:41;;;;;;;10.00;9.70;;;8.10;99.90;;;;;;5074924;28;20238;-79
2023/03/20 05:47:09;;;;;;;10.30;10.00;;;8.10;99.90;;;;;;5072894;28;20222;-79
2023/03/20 05:49:36;;;;;;;10.30;10.00;;;8.20;99.90;;;;;;5068239;28;20226;-79
2023/03/20 05:52:04;;;;;;;10.00;9.70;;;8.20;99.90;;;;;;5067886;28;20238;-79
2023/03/20 05:54:40;;;;;;;9.77;9.47;;;8.10;99.90;;;;;;5067004;28;20235;-80
2023/03/20 05:57:07;;;;;;;9.90;9.60;;;8.20;99.90;;;;;;5067847;28;20237;-79
2023/03/20 05:59:35;;;;;;;9.83;9.53;;;8.20;99.90;;;;;;5065406;28;20298;-79
2023/03/20 06:02:02;;;;;;;9.90;9.60;;;8.20;99.90;;;;;;5066261;28;20230;-79
2023/03/20 06:04:31;;;;;;;9.83;9.53;;;8.20;99.90;;;;;;5066105;28;20298;-80
2023/03/20 06:06:59;;;;;;;9.83;9.53;;;8.10;99.90;;;;;;5066387;28;20230;-79
2023/03/20 06:09:27;;;;;;;9.80;9.50;;;8.20;99.90;;;;;;5066190;28;20305;-79
2023/03/20 06:11:56;;;;;;;9.70;9.40;;;8.20;99.90;;;;;;5073533;28;20235;-79
2023/03/20 06:14:23;;;;;;;9.80;9.50;;;8.20;99.90;;;;;;5071590;28;20321;-80
2023/03/20 06:16:52;;;;;;;9.83;9.53;;;8.30;99.90;;;;;;5070490;28;20225;-79
2023/03/20 06:19:21;;;;;;;9.90;9.60;;;8.30;99.90;;;;;;5070884;28;20290;-81
2023/03/20 06:21:49;;;;;;;9.60;9.30;;;8.30;99.90;;;;;;5069446;28;20285;-79
2023/03/20 06:24:19;;;;;;;9.93;9.63;;;8.30;99.90;;;;;;5069472;28;20712;-79
2023/03/20 06:26:48;;;;;;;10.17;9.87;;;8.40;99.90;;;;;;5069317;28;20235;-79
2023/03/20 06:29:17;;;;;;;9.73;9.43;;;8.40;99.90;;;;;;5069862;28;20215;-80
2023/03/20 06:31:45;;;;;;;9.73;9.43;;;8.50;99.90;;;;;;5070587;28;20257;-79
2023/03/20 06:34:13;;;;;;;9.67;9.37;;;8.50;99.90;;;;;;5070221;28;20326;-80
2023/03/20 06:36:40;;;;;;;9.60;9.30;;;8.50;99.90;;;;;;5069443;28;20334;-80
2023/03/20 06:39:09;;;;;;;9.53;9.23;;;8.50;99.90;;;;;;5068908;28;20218;-80
2023/03/20 06:41:38;;;;;;;9.60;9.30;;;8.60;99.90;;;;;;5069451;28;20326;-80
2023/03/20 06:44:07;;;;;;;9.60;9.30;;;8.60;99.90;;;;;;5069152;28;20234;-80
2023/03/20 06:46:36;;;;;;;9.13;8.83;;;8.70;99.90;;;;;;5068957;28;20237;-80
2023/03/20 06:49:03;;;;;;;9.30;9.00;;;8.80;99.90;;;;;;5069639;28;20275;-80
2023/03/20 06:51:33;;;;;;;9.50;9.20;;;8.80;99.90;;;;;;5068288;28;20230;-80
2023/03/20 06:54:01;;;;;;;9.30;9.00;;;8.90;99.90;;;;;;5069816;28;20223;-80
2023/03/20 06:56:28;;;;;;;9.23;8.93;;;9.00;99.90;;;;;;5068758;28;20261;-80
2023/03/20 06:58:58;;;;;;;9.30;9.00;;;9.10;99.90;;;;;;5069541;28;20325;-80
2023/03/20 07:01:26;;;;;;;9.30;9.00;;;9.10;99.90;;;;;;5068841;28;20298;-81
2023/03/20 07:03:56;;;;;;;9.17;8.87;;;9.10;99.90;;;;;;5068359;28;20238;-82
2023/03/20 07:06:24;;;;;;;9.68;9.38;;;9.00;99.90;;;;;;5066316;28;20405;-79
2023/03/20 07:08:53;;;;;;;9.60;9.30;;;9.00;99.90;;;;;;5067556;28;20231;-82
2023/03/20 07:11:23;;;;;;;9.70;9.40;;;9.10;99.90;;;;;;5068423;28;20234;-81
2023/03/20 07:13:52;;;;;;;9.40;9.10;;;9.10;99.90;;;;;;5068071;28;20294;-80
2023/03/20 07:16:21;;;;;;;9.43;9.13;;;9.10;99.90;;;;;;5076001;28;20234;-80
2023/03/20 07:18:52;;;;;;;9.60;9.30;;;9.00;99.90;;;;;;5074762;28;20215;-81
2023/03/20 07:21:30;;;;;;;9.23;8.93;;;9.00;99.90;;;;;;5066757;28;20262;-81
2023/03/20 07:23:58;;;;;;;9.33;9.03;;;9.10;99.90;;;;;;5067291;28;20239;-80
2023/03/20 07:26:27;;;;;;;9.17;8.87;;;9.10;99.90;;;;;;5067073;28;20241;-80
2023/03/20 07:28:58;;;;;;;9.40;9.10;;;9.10;99.90;;;;;;5069149;28;20221;-80
2023/03/20 07:31:28;;;;;;;9.13;8.83;;;9.20;99.90;;;;;;5056596;28;20236;-81
2023/03/20 07:33:56;;;;;;;9.10;8.80;;;9.20;99.90;;;;;;5074301;28;20234;-80
2023/03/20 07:36:26;;;;;;;9.20;8.90;;;9.30;99.90;;;;;;5073598;28;20226;-82
2023/03/20 07:38:54;;;;;;;9.50;9.20;;;9.40;99.90;;;;;;5071594;28;20699;-81
2023/03/20 07:41:24;;;;;;;9.50;9.20;;;9.50;99.90;;;;;;5073585;28;20317;-81
2023/03/20 07:43:54;;;;;;;9.50;9.20;;;9.50;99.90;;;;;;5067306;28;20299;-81
2023/03/20 07:46:24;;;;;;;9.80;9.50;;;9.60;99.90;;;;;;5066070;28;20306;-81
2023/03/20 07:48:53;;;;;;;9.80;9.50;;;9.60;99.90;;;;;;5066365;28;20227;-81
2023/03/20 07:51:22;;;;;;;10.00;9.70;;;9.70;99.90;;;;;;5066536;28;20237;-81
2023/03/20 07:53:51;;;;;;;10.00;9.70;;;9.60;99.90;;;;;;5066711;28;20241;-81
2023/03/20 07:56:21;;;;;;;9.90;9.60;;;9.60;99.90;;;;;;5067827;28;20258;-81
2023/03/20 07:58:51;;;;;;;10.00;9.70;;;9.70;99.90;;;;;;5073903;28;20289;-81
2023/03/20 08:01:20;;;;;;;9.90;9.60;;;9.70;99.90;;;;;;5071344;28;20259;-84
2023/03/20 08:03:50;;;;;;;10.07;9.77;;;9.70;99.90;;;;;;5070238;28;20278;-81
2023/03/20 08:06:20;;;;;;;9.90;9.60;;;9.80;99.90;;;;;;5069112;28;20286;-81
2023/03/20 08:08:52;;;;;;;9.60;9.30;;;9.80;99.90;;;;;;5070039;28;20235;-80
2023/03/20 08:11:20;;;;;;;9.80;9.50;;;9.90;99.90;;;;;;5067445;28;20238;-81
2023/03/20 08:13:49;;;;;;;10.07;9.77;;;10.00;99.90;;;;;;5069784;28;20305;-81
2023/03/20 08:16:19;;;;;;;9.70;9.40;;;10.00;99.90;;;;;;5068617;28;20286;-81
2023/03/20 08:18:49;;;;;;;9.60;9.30;;;10.10;99.90;;;;;;5068824;28;20223;-81
2023/03/20 08:21:17;;;;;;;9.80;9.50;;;10.20;99.90;;;;;;5062166;28;20234;-81
2023/03/20 08:23:46;;;;;;;9.70;9.40;;;10.20;99.90;;;;;;5068748;28;20251;-81
2023/03/20 08:26:17;;;;;;;10.07;9.77;;;10.20;99.90;;;;;;5068491;28;20329;-81
2023/03/20 08:28:45;;;;;;;9.80;9.50;;;10.30;99.90;;;;;;5068440;28;20230;-81
2023/03/20 08:31:15;;;;;;;9.97;9.67;;;10.30;99.90;;;;;;5067884;28;20245;-79
2023/03/20 08:33:44;;;;;;;9.70;9.40;;;10.40;99.90;;;;;;5067617;28;20288;-80
2023/03/20 08:36:14;;;;;;;9.80;9.50;;;10.40;99.90;;;;;;5069145;28;20298;-82
2023/03/20 08:38:43;;;;;;;9.67;9.37;;;10.50;99.90;;;;;;5069119;28;20234;-80
2023/03/20 08:41:12;;;;;;;10.10;9.80;;;10.50;99.90;;;;;;5069979;28;20294;-80
2023/03/20 08:43:43;;;;;;;10.23;9.93;;;10.60;99.90;;;;;;5068725;28;20271;-82
2023/03/20 08:46:11;;;;;;;10.30;10.00;;;10.70;99.90;;;;;;5089357;28;20241;-80
2023/03/20 08:48:39;;;;;;;10.60;10.30;;;10.70;99.90;;;;;;5089416;28;20228;-81
2023/03/20 08:51:08;;;;;;;10.80;10.50;;;10.70;99.90;;;;;;5077096;28;20627;-80
2023/03/20 08:53:35;;;;;;;10.60;10.30;;;10.70;99.90;;;;;;5068943;28;20314;-80
2023/03/20 08:56:03;;;;;;;10.40;10.10;;;10.80;99.90;;;;;;5079831;28;20230;-79
2023/03/20 08:58:31;;;;;;;10.33;10.03;;;10.80;99.90;;;;;;5075209;28;20260;-82
2023/03/20 09:01:07;;;;;;;10.30;10.00;;;10.80;99.90;;;;;;5067937;28;20265;-78
2023/03/20 09:03:37;;;;;;;10.10;9.80;;;10.80;99.90;;;;;;5068009;28;20329;-81
2023/03/20 09:06:08;;;;;;;10.07;9.77;;;10.80;99.90;;;;;;5066569;28;20313;-82
2023/03/20 09:08:36;;;;;;;10.20;9.90;;;10.80;99.90;;;;;;5067952;28;20237;-84
2023/03/20 09:11:06;;;;;;;10.03;9.73;;;10.80;99.90;;;;;;5067310;28;20239;-83
2023/03/20 09:13:36;;;;;;;9.97;9.67;;;10.80;99.90;;;;;;5068035;28;20234;-82
2023/03/20 09:16:15;;;;;;;10.27;9.97;;;10.80;99.90;;;;;;5067767;28;20294;-83
2023/03/20 09:18:43;;;;;;;10.40;10.10;;;10.80;99.90;;;;;;5066955;28;20211;-83
2023/03/20 09:21:11;;;;;;;10.20;9.90;;;10.80;99.90;;;;;;5065696;28;20299;-83
2023/03/20 09:23:44;;;;;;;10.30;10.00;;;10.70;99.90;;;;;;5068944;28;20231;-82
2023/03/20 09:26:12;;;;;;;10.60;10.30;;;10.80;99.90;;;;;;5070397;28;20288;-82
2023/03/20 09:28:41;;;;;;;10.50;10.20;;;10.80;99.90;;;;;;5068211;28;20237;-83
2023/03/20 09:31:13;;;;;;;10.07;9.77;;;10.90;99.90;;;;;;5067118;28;20242;-85
2023/03/20 09:33:40;;;;;;;10.60;10.30;;;11.00;99.90;;;;;;5068079;28;20261;-82
2023/03/20 09:36:10;;;;;;;10.43;10.13;;;11.00;99.90;;;;;;5067926;28;20231;-82
2023/03/20 09:38:40;;;;;;;10.20;9.90;;;11.20;99.90;;;;;;5064864;28;20246;-81
2023/03/20 09:41:17;;;;;;;10.30;10.00;;;11.40;99.90;;;;;;5067966;28;20249;-81
2023/03/20 09:44:15;;;;;;;10.10;9.80;;;11.40;99.90;;;;;;5064622;28;20238;-82
2023/03/20 09:47:00;;;;;;;10.20;9.90;;;11.50;99.90;;;;;;5063498;28;20235;-82
2023/03/20 09:49:40;;;;;;;10.40;10.10;;;11.60;99.90;;;;;;5063188;28;20231;-81
2023/03/20 09:52:24;;;;;;;10.40;10.10;;;11.70;99.90;;;;;;5063517;28;20245;-82
2023/03/20 09:54:56;;;;;;;10.10;9.80;;;11.70;99.90;;;;;;5064394;28;20306;-82
2023/03/20 09:57:35;;;;;;;10.10;9.80;;;11.70;99.90;;;;;;5064621;28;20289;-82
2023/03/20 10:00:11;;;;;;;10.30;10.00;;;11.70;99.90;;;;;;5063834;28;20227;-81
2023/03/20 10:02:49;;;;;;;10.33;10.03;;;11.60;99.90;;;;;;5063727;28;20241;-82
2023/03/20 10:05:25;;;;;;;10.23;9.93;;;11.50;99.90;;;;;;5063345;28;20293;-82
2023/03/20 10:08:01;;;;;;;10.57;10.27;;;11.50;99.90;;;;;;5062197;28;20253;-82
2023/03/20 10:10:47;;;;;;;10.40;10.10;;;11.50;99.90;;;;;;5062873;28;20235;-82
2023/03/20 10:13:35;;;;;;;10.70;10.40;;;11.50;99.90;;;;;;5066006;28;20237;-84
2023/03/20 10:16:18;;;;;;;10.83;10.53;;;11.50;99.90;;;;;;5076294;28;20231;-82
2023/03/20 10:18:58;;;;;;;10.97;10.67;;;11.50;99.90;;;;;;5068580;28;20221;-81
2023/03/20 10:21:37;;;;;;;10.53;10.23;;;11.60;99.90;;;;;;5066914;28;20282;-81
2023/03/20 10:24:07;;;;;;;10.60;10.30;;;11.70;99.90;;;;;;5065553;28;20734;-81
2023/03/20 10:26:36;;;;;;;10.47;10.17;;;11.80;99.90;;;;;;5064761;28;20267;-81
2023/03/20 10:29:15;;;;;;;10.50;10.20;;;11.80;99.90;;;;;;5064846;28;20287;-82
2023/03/20 10:31:50;;;;;;;10.60;10.30;;;11.90;99.90;;;;;;5064163;28;20314;-81
2023/03/20 10:34:49;;;;;;;10.47;10.17;;;12.00;99.90;;;;;;5063487;28;20244;-81
2023/03/20 10:37:34;;;;;;;10.57;10.27;;;12.10;99.90;;;;;;5064020;28;20231;-82
2023/03/20 10:40:23;;;;;;;10.83;10.53;;;12.10;99.90;;;;;;5064772;28;20230;-82
2023/03/20 10:43:01;;;;;;;10.90;10.60;;;12.10;99.90;;;;;;5063933;28;20234;-81
2023/03/20 10:45:37;;;;;;;10.70;10.40;;;12.10;99.90;;;;;;5063725;28;20250;-82
2023/03/20 10:48:17;;;;;;;10.80;10.50;;;12.10;99.90;;;;;;5062663;28;20234;-81
2023/03/20 10:50:56;;;;;;;10.37;10.07;;;12.10;99.90;;;;;;5063656;28;20233;-81
2023/03/20 10:53:34;;;;;;;10.30;10.00;;;12.20;99.90;;;;;;5073512;28;20242;-81
2023/03/20 10:56:07;;;;;;;10.47;10.17;;;12.30;99.90;;;;;;5053415;28;20238;-80
2023/03/20 10:58:43;;;;;;;10.60;10.30;;;12.30;99.90;;;;;;5053748;28;20246;-80
2023/03/20 11:01:11;;;;;;;10.23;9.93;;;12.30;99.90;;;;;;5056834;28;20226;-82
2023/03/20 11:03:40;;;;;;;10.70;10.40;;;12.40;99.90;;;;;;5060168;28;21017;-81
2023/03/20 11:06:17;;;;;;;10.47;10.17;;;12.40;99.90;;;;;;5061239;28;20228;-82
2023/03/20 11:08:57;;;;;;;10.30;10.00;;;12.60;99.90;;;;;;5080544;28;20290;-81
2023/03/20 11:11:27;;;;;;;10.30;10.00;;;12.40;99.90;;;;;;5084889;28;20282;-81
2023/03/20 11:13:55;;;;;;;10.43;10.13;;;12.50;99.90;;;;;;5081049;28;20274;-81
2023/03/20 11:16:25;;;;;;;10.60;10.30;;;12.50;99.90;;;;;;5080922;28;20230;-84
2023/03/20 11:18:54;;;;;;;10.70;10.40;;;12.60;99.90;;;;;;5079629;28;20269;-81
2023/03/20 11:21:32;;;;;;;10.90;10.60;;;12.60;99.90;;;;;;5079737;28;20283;-82
2023/03/20 11:24:01;;;;;;;10.60;10.30;;;12.70;99.90;;;;;;5080009;28;20271;-82
2023/03/20 11:26:38;;;;;;;10.70;10.40;;;12.80;99.90;;;;;;5078782;28;20235;-81
2023/03/20 11:29:10;;;;;;;10.80;10.50;;;12.90;99.90;;;;;;5074885;28;20235;-80
2023/03/20 11:31:42;;;;;;;10.50;10.20;;;13.10;99.90;;;;;;5068460;28;20293;-80
2023/03/20 11:34:26;;;;;;;10.40;10.10;;;13.00;99.90;;;;;;5066869;28;20237;-80
2023/03/20 11:37:01;;;;;;;10.40;10.10;;;12.90;99.90;;;;;;5066659;28;20334;-81
2023/03/20 11:39:31;;;;;;;10.30;10.00;;;12.80;99.90;;;;;;5070557;28;20293;-80
2023/03/20 11:42:02;;;;;;;10.40;10.10;;;12.80;99.90;;;;;;5079593;28;20269;-81
2023/03/20 11:44:31;;;;;;;10.43;10.13;;;13.00;99.90;;;;;;5072670;28;20218;-81
2023/03/20 11:47:02;;;;;;;10.40;10.10;;;13.20;99.90;;;;;;5066470;28;20237;-81
2023/03/20 11:49:31;;;;;;;10.43;10.13;;;13.30;99.90;;;;;;5066441;28;20238;-80
2023/03/20 11:52:14;;;;;;;10.50;10.20;;;13.30;99.90;;;;;;5065349;28;20227;-80
2023/03/20 11:54:50;;;;;;;10.40;10.10;;;13.40;99.90;;;;;;5065271;28;20253;-80
2023/03/20 11:57:33;;;;;;;10.27;9.97;;;13.50;99.90;;;;;;5066330;28;20238;-80
2023/03/20 12:00:06;;;;;;;10.43;10.13;;;13.40;99.90;;;;;;5067581;28;20239;-81
2023/03/20 12:02:35;;;;;;;10.40;10.10;;;13.20;99.90;;;;;;5068700;28;20317;-81
2023/03/20 12:05:30;;;;;;;10.50;10.20;;;12.90;99.90;;;;;;5068581;28;20235;-84
2023/03/20 12:08:09;;;;;;;10.37;10.07;;;12.90;99.90;;;;;;5067730;28;20230;-81
2023/03/20 12:10:43;;;;;;;10.43;10.13;;;13.00;99.90;;;;;;5067229;28;20257;-83
2023/03/20 12:13:17;;;;;;;10.30;10.00;;;13.20;99.90;;;;;;5061401;28;20291;-83
2023/03/20 12:15:51;;;;;;;10.30;10.00;;;13.30;99.90;;;;;;5061082;28;20233;-81
2023/03/20 12:18:26;;;;;;;10.53;10.23;;;13.40;99.90;;;;;;5061403;28;20215;-81
2023/03/20 12:21:04;;;;;;;10.40;10.10;;;13.50;99.90;;;;;;5061514;28;20329;-82
2023/03/20 12:23:39;;;;;;;10.40;10.10;;;13.50;99.90;;;;;;5061293;28;20237;-79
2023/03/20 12:26:11;;;;;;;10.20;9.90;;;13.60;99.90;;;;;;5061332;28;20229;-80
2023/03/20 12:28:44;;;;;;;10.10;9.80;;;13.50;99.90;;;;;;5060599;28;20238;-83
2023/03/20 12:31:26;;;;;;;10.10;9.80;;;13.20;99.90;;;;;;5062916;28;20273;-81
2023/03/20 12:33:59;;;;;;;10.20;9.90;;;13.20;99.90;;;;;;5067427;28;20249;-80
2023/03/20 12:36:33;;;;;;;10.00;9.70;;;13.20;99.90;;;;;;5077410;28;20211;-80
2023/03/20 12:39:05;;;;;;;10.23;9.93;;;13.10;99.90;;;;;;5079851;28;20239;-82
2023/03/20 12:41:46;;;;;;;10.67;10.37;;;13.20;99.90;;;;;;5076192;28;20261;-82
2023/03/20 12:44:34;;;;;;;10.40;10.10;;;13.20;99.90;;;;;;5067286;28;21019;-81
2023/03/20 12:47:35;;;;;;;10.67;10.37;;;13.40;99.90;;;;;;5064560;28;20283;-81
2023/03/20 12:50:13;;;;;;;10.67;10.37;;;13.50;99.90;;;;;;5062259;28;20307;-82
2023/03/20 12:52:50;;;;;;;10.60;10.30;;;13.30;99.90;;;;;;5064044;28;20230;-82
2023/03/20 12:55:31;;;;;;;10.70;10.40;;;13.00;99.90;;;;;;5060205;28;20325;-81
2023/03/20 12:58:13;;;;;;;10.77;10.47;;;12.80;99.90;;;;;;5057028;28;20249;-83
2023/03/20 13:00:49;;;;;;;10.57;10.27;;;12.70;99.90;;;;;;5061562;28;20245;-83
2023/03/20 13:03:43;;;;;;;10.70;10.40;;;12.50;99.90;;;;;;5076790;28;20232;-82
2023/03/20 13:06:18;;;;;;;10.47;10.17;;;12.50;99.90;;;;;;5041983;28;20231;-83
2023/03/20 13:09:36;;;;;;;10.40;10.10;;;12.50;99.90;;;;;;5042508;28;20231;-83
2023/03/20 13:12:16;;;;;;;10.67;10.37;;;12.60;99.90;;;;;;5032272;28;20227;-81
2023/03/20 13:14:53;;;;;;;10.57;10.27;;;12.40;99.90;;;;;;5043495;28;20238;-82